sensor_id;sensor_type;location;lat;lon;timestamp;temperature;humidity
22202;DHT22;11266;51.522;6.302;2023-04-24T00:00:03;10.60;99.90
22202;DHT22;11266;51.522;6.302;2023-04-24T00:00:55;10.60;99.90
22202;DHT22;11266;51.522;6.302;2023-04-24T00:01:44;10.60;99.90
22202;DHT22;11266;51.522;6.302;2023-04-24T00:02:30;10.70;99.90
22202;DHT22;11266;51.522;6.302;2023-04-24T00:03:17;10.70;99.90
22202;DHT22;11266;51.522;6.302;2023-04-24T00:04:06;10.60;99.90
22202;DHT22;11266;51.522;6.302;2023-04-24T00:04:56;10.70;99.90
22202;DHT22;11266;51.522;6.302;2023-04-24T00:05:41;10.70;99.90
22202;DHT22;11266;51.522;6.302;2023-04-24T00:06:28;10.70;99.90
22202;DHT22;11266;51.522;6.302;2023-04-24T00:07:19;10.60;99.90
22202;DHT22;11266;51.522;6.302;2023-04-24T00:08:05;10.60;99.90
22202;DHT22;11266;51.522;6.302;2023-04-24T00:08:51;10.60;99.90
22202;DHT22;11266;51.522;6.302;2023-04-24T00:09:37;10.60;99.90
22202;DHT22;11266;51.522;6.302;2023-04-24T00:10:23;10.60;99.90
22202;DHT22;11266;51.522;6.302;2023-04-24T00:11:08;10.60;99.90
22202;DHT22;11266;51.522;6.302;2023-04-24T00:11:55;10.60;99.90
22202;DHT22;11266;51.522;6.302;2023-04-24T00:12:41;10.60;99.90
22202;DHT22;11266;51.522;6.302;2023-04-24T00:13:27;10.60;99.90
22202;DHT22;11266;51.522;6.302;2023-04-24T00:14:14;10.60;99.90
22202;DHT22;11266;51.522;6.302;2023-04-24T00:15:00;10.60;99.90
22202;DHT22;11266;51.522;6.302;2023-04-24T00:15:46;10.60;99.90
22202;DHT22;11266;51.522;6.302;2023-04-24T00:16:32;10.60;99.90
22202;DHT22;11266;51.522;6.302;2023-04-24T00:17:17;10.60;99.90
22202;DHT22;11266;51.522;6.302;2023-04-24T00:18:06;10.50;99.90
22202;DHT22;11266;51.522;6.302;2023-04-24T00:18:52;10.60;99.90
22202;DHT22;11266;51.522;6.302;2023-04-24T00:19:38;10.50;99.90
22202;DHT22;11266;51.522;6.302;2023-04-24T00:20:23;10.60;99.90
22202;DHT22;11266;51.522;6.302;2023-04-24T00:21:09;10.60;99.90
22202;DHT22;11266;51.522;6.302;2023-04-24T00:21:55;10.60;99.90
22202;DHT22;11266;51.522;6.302;2023-04-24T00:22:41;10.60;99.90
22202;DHT22;11266;51.522;6.302;2023-04-24T00:23:27;10.60;99.90
22202;DHT22;11266;51.522;6.302;2023-04-24T00:24:12;10.60;99.90
22202;DHT22;11266;51.522;6.302;2023-04-24T00:24:58;10.50;99.90
22202;DHT22;11266;51.522;6.302;2023-04-24T00:25:44;10.50;99.90
22202;DHT22;11266;51.522;6.302;2023-04-24T00:26:30;10.60;99.90
22202;DHT22;11266;51.522;6.302;2023-04-24T00:27:16;10.60;99.90
22202;DHT22;11266;51.522;6.302;2023-04-24T00:28:01;10.60;99.90
22202;DHT22;11266;51.522;6.302;2023-04-24T00:28:47;10.50;99.90
22202;DHT22;11266;51.522;6.302;2023-04-24T00:29:33;10.50;99.90
22202;DHT22;11266;51.522;6.302;2023-04-24T00:30:19;10.50;99.90
22202;DHT22;11266;51.522;6.302;2023-04-24T00:31:05;10.60;99.90
22202;DHT22;11266;51.522;6.302;2023-04-24T00:31:50;10.50;99.90
22202;DHT22;11266;51.522;6.302;2023-04-24T00:32:36;10.50;99.90
22202;DHT22;11266;51.522;6.302;2023-04-24T00:33:22;10.40;99.90
22202;DHT22;11266;51.522;6.302;2023-04-24T00:34:08;10.40;99.90
22202;DHT22;11266;51.522;6.302;2023-04-24T00:34:54;10.40;99.90
22202;DHT22;11266;51.522;6.302;2023-04-24T00:35:39;10.40;99.90
22202;DHT22;11266;51.522;6.302;2023-04-24T00:36:25;10.40;99.90
22202;DHT22;11266;51.522;6.302;2023-04-24T00:37:12;10.40;99.90
22202;DHT22;11266;51.522;6.302;2023-04-24T00:37:58;10.50;99.90
22202;DHT22;11266;51.522;6.302;2023-04-24T00:38:44;10.50;99.90
22202;DHT22;11266;51.522;6.302;2023-04-24T00:39:30;10.50;99.90
22202;DHT22;11266;51.522;6.302;2023-04-24T00:40:16;10.50;99.90
22202;DHT22;11266;51.522;6.302;2023-04-24T00:41:02;10.50;99.90
22202;DHT22;11266;51.522;6.302;2023-04-24T00:41:47;10.50;99.90
22202;DHT22;11266;51.522;6.302;2023-04-24T00:42:34;10.40;99.90
22202;DHT22;11266;51.522;6.302;2023-04-24T00:43:20;10.40;99.90
22202;DHT22;11266;51.522;6.302;2023-04-24T00:44:06;10.50;99.90
22202;DHT22;11266;51.522;6.302;2023-04-24T00:44:52;10.50;99.90
22202;DHT22;11266;51.522;6.302;2023-04-24T00:45:38;10.40;99.90
22202;DHT22;11266;51.522;6.302;2023-04-24T00:46:24;10.40;99.90
22202;DHT22;11266;51.522;6.302;2023-04-24T00:47:11;10.40;99.90
22202;DHT22;11266;51.522;6.302;2023-04-24T00:47:58;10.40;99.90
22202;DHT22;11266;51.522;6.302;2023-04-24T00:48:45;10.40;99.90
22202;DHT22;11266;51.522;6.302;2023-04-24T00:49:31;10.50;99.90
22202;DHT22;11266;51.522;6.302;2023-04-24T00:50:18;10.50;99.90
22202;DHT22;11266;51.522;6.302;2023-04-24T00:51:05;10.50;99.90
22202;DHT22;11266;51.522;6.302;2023-04-24T00:51:50;10.50;99.90
22202;DHT22;11266;51.522;6.302;2023-04-24T00:52:36;10.50;99.90
22202;DHT22;11266;51.522;6.302;2023-04-24T00:53:22;10.50;99.90
22202;DHT22;11266;51.522;6.302;2023-04-24T00:54:08;10.60;99.90
22202;DHT22;11266;51.522;6.302;2023-04-24T00:54:53;10.70;99.90
22202;DHT22;11266;51.522;6.302;2023-04-24T00:55:40;10.60;99.90
22202;DHT22;11266;51.522;6.302;2023-04-24T00:56:26;10.70;99.90
22202;DHT22;11266;51.522;6.302;2023-04-24T00:57:14;10.60;99.90
22202;DHT22;11266;51.522;6.302;2023-04-24T00:58:03;10.60;99.90
22202;DHT22;11266;51.522;6.302;2023-04-24T00:58:49;10.60;99.90
22202;DHT22;11266;51.522;6.302;2023-04-24T00:59:35;10.50;99.90
22202;DHT22;11266;51.522;6.302;2023-04-24T01:00:22;10.50;99.90
22202;DHT22;11266;51.522;6.302;2023-04-24T01:01:08;10.50;99.90
22202;DHT22;11266;51.522;6.302;2023-04-24T01:01:55;10.40;99.90
22202;DHT22;11266;51.522;6.302;2023-04-24T01:02:43;10.50;99.90
22202;DHT22;11266;51.522;6.302;2023-04-24T01:03:31;10.50;99.90
22202;DHT22;11266;51.522;6.302;2023-04-24T01:04:17;10.50;99.90
22202;DHT22;11266;51.522;6.302;2023-04-24T01:05:03;10.40;99.90
22202;DHT22;11266;51.522;6.302;2023-04-24T01:05:50;10.40;99.90
22202;DHT22;11266;51.522;6.302;2023-04-24T01:06:38;10.50;99.90
22202;DHT22;11266;51.522;6.302;2023-04-24T01:07:24;10.50;99.90
22202;DHT22;11266;51.522;6.302;2023-04-24T01:08:11;10.50;99.90
22202;DHT22;11266;51.522;6.302;2023-04-24T01:08:58;10.40;99.90
22202;DHT22;11266;51.522;6.302;2023-04-24T01:09:45;10.30;99.90
22202;DHT22;11266;51.522;6.302;2023-04-24T01:10:34;10.40;99.90
22202;DHT22;11266;51.522;6.302;2023-04-24T01:11:22;10.30;99.90
22202;DHT22;11266;51.522;6.302;2023-04-24T01:12:07;10.30;99.90
22202;DHT22;11266;51.522;6.302;2023-04-24T01:12:53;10.40;99.90
22202;DHT22;11266;51.522;6.302;2023-04-24T01:13:39;10.30;99.90
22202;DHT22;11266;51.522;6.302;2023-04-24T01:14:25;10.30;99.90
22202;DHT22;11266;51.522;6.302;2023-04-24T01:15:11;10.20;99.90
22202;DHT22;11266;51.522;6.302;2023-04-24T01:15:57;10.20;99.90
22202;DHT22;11266;51.522;6.302;2023-04-24T01:16:44;10.20;99.90
22202;DHT22;11266;51.522;6.302;2023-04-24T01:17:29;10.20;99.90
22202;DHT22;11266;51.522;6.302;2023-04-24T01:18:16;10.20;99.90
22202;DHT22;11266;51.522;6.302;2023-04-24T01:19:02;10.10;99.90
22202;DHT22;11266;51.522;6.302;2023-04-24T01:19:48;10.20;99.90
22202;DHT22;11266;51.522;6.302;2023-04-24T01:20:34;10.20;99.90
22202;DHT22;11266;51.522;6.302;2023-04-24T01:21:21;10.30;99.90
22202;DHT22;11266;51.522;6.302;2023-04-24T01:22:12;10.30;99.90
22202;DHT22;11266;51.522;6.302;2023-04-24T01:22:58;10.30;99.90
22202;DHT22;11266;51.522;6.302;2023-04-24T01:23:45;10.40;99.90
22202;DHT22;11266;51.522;6.302;2023-04-24T01:24:30;10.40;99.90
22202;DHT22;11266;51.522;6.302;2023-04-24T01:25:16;10.30;99.90
22202;DHT22;11266;51.522;6.302;2023-04-24T01:26:02;10.30;99.90
22202;DHT22;11266;51.522;6.302;2023-04-24T01:26:48;10.20;99.90
22202;DHT22;11266;51.522;6.302;2023-04-24T01:27:34;10.30;99.90
22202;DHT22;11266;51.522;6.302;2023-04-24T01:28:21;10.40;99.90
22202;DHT22;11266;51.522;6.302;2023-04-24T01:29:07;10.30;99.90
22202;DHT22;11266;51.522;6.302;2023-04-24T01:29:53;10.30;99.90
22202;DHT22;11266;51.522;6.302;2023-04-24T01:30:39;10.20;99.90
22202;DHT22;11266;51.522;6.302;2023-04-24T01:31:24;10.20;99.90
22202;DHT22;11266;51.522;6.302;2023-04-24T01:32:11;10.20;99.90
22202;DHT22;11266;51.522;6.302;2023-04-24T01:32:57;10.20;99.90
22202;DHT22;11266;51.522;6.302;2023-04-24T01:33:44;10.10;99.90
22202;DHT22;11266;51.522;6.302;2023-04-24T01:34:30;10.10;99.90
22202;DHT22;11266;51.522;6.302;2023-04-24T01:35:16;10.10;99.90
22202;DHT22;11266;51.522;6.302;2023-04-24T01:36:01;10.10;99.90
22202;DHT22;11266;51.522;6.302;2023-04-24T01:36:48;10.10;99.90
22202;DHT22;11266;51.522;6.302;2023-04-24T01:37:34;10.10;99.90
22202;DHT22;11266;51.522;6.302;2023-04-24T01:38:20;10.20;99.90
22202;DHT22;11266;51.522;6.302;2023-04-24T01:39:06;10.20;99.90
22202;DHT22;11266;51.522;6.302;2023-04-24T01:39:52;10.20;99.90
22202;DHT22;11266;51.522;6.302;2023-04-24T01:40:37;10.10;99.90
22202;DHT22;11266;51.522;6.302;2023-04-24T01:41:24;10.10;99.90
22202;DHT22;11266;51.522;6.302;2023-04-24T01:42:10;10.10;99.90
22202;DHT22;11266;51.522;6.302;2023-04-24T01:42:58;10.20;99.90
22202;DHT22;11266;51.522;6.302;2023-04-24T01:43:44;10.20;99.90
22202;DHT22;11266;51.522;6.302;2023-04-24T01:44:30;10.20;99.90
22202;DHT22;11266;51.522;6.302;2023-04-24T01:45:16;10.10;99.90
22202;DHT22;11266;51.522;6.302;2023-04-24T01:46:02;10.10;99.90
22202;DHT22;11266;51.522;6.302;2023-04-24T01:46:48;10.10;99.90
22202;DHT22;11266;51.522;6.302;2023-04-24T01:47:34;10.10;99.90
22202;DHT22;11266;51.522;6.302;2023-04-24T01:48:20;10.10;99.90
22202;DHT22;11266;51.522;6.302;2023-04-24T01:49:05;10.20;99.90
22202;DHT22;11266;51.522;6.302;2023-04-24T01:49:51;10.20;99.90
22202;DHT22;11266;51.522;6.302;2023-04-24T01:50:37;10.20;99.90
22202;DHT22;11266;51.522;6.302;2023-04-24T01:51:23;10.10;99.90
22202;DHT22;11266;51.522;6.302;2023-04-24T01:52:09;10.10;99.90
22202;DHT22;11266;51.522;6.302;2023-04-24T01:52:55;10.10;99.90
22202;DHT22;11266;51.522;6.302;2023-04-24T01:53:41;10.10;99.90
22202;DHT22;11266;51.522;6.302;2023-04-24T01:54:26;10.20;99.90
22202;DHT22;11266;51.522;6.302;2023-04-24T01:55:12;10.20;99.90
22202;DHT22;11266;51.522;6.302;2023-04-24T01:55:58;10.10;99.90
22202;DHT22;11266;51.522;6.302;2023-04-24T01:56:44;10.10;99.90
22202;DHT22;11266;51.522;6.302;2023-04-24T01:57:31;10.10;99.90
22202;DHT22;11266;51.522;6.302;2023-04-24T01:58:17;10.00;99.90
22202;DHT22;11266;51.522;6.302;2023-04-24T01:59:03;10.00;99.90
22202;DHT22;11266;51.522;6.302;2023-04-24T01:59:50;9.90;99.90
22202;DHT22;11266;51.522;6.302;2023-04-24T02:00:36;9.90;99.90
22202;DHT22;11266;51.522;6.302;2023-04-24T02:01:23;9.90;99.90
22202;DHT22;11266;51.522;6.302;2023-04-24T02:02:09;9.90;99.90
22202;DHT22;11266;51.522;6.302;2023-04-24T02:02:55;10.00;99.90
22202;DHT22;11266;51.522;6.302;2023-04-24T02:03:41;9.90;99.90
22202;DHT22;11266;51.522;6.302;2023-04-24T02:04:27;9.90;99.90
22202;DHT22;11266;51.522;6.302;2023-04-24T02:05:12;10.00;99.90
22202;DHT22;11266;51.522;6.302;2023-04-24T02:05:58;9.90;99.90
22202;DHT22;11266;51.522;6.302;2023-04-24T02:06:44;9.90;99.90
22202;DHT22;11266;51.522;6.302;2023-04-24T02:07:30;9.90;99.90
22202;DHT22;11266;51.522;6.302;2023-04-24T02:08:15;9.90;99.90
22202;DHT22;11266;51.522;6.302;2023-04-24T02:09:02;9.90;99.90
22202;DHT22;11266;51.522;6.302;2023-04-24T02:09:48;9.90;99.90
22202;DHT22;11266;51.522;6.302;2023-04-24T02:10:34;9.80;99.90
22202;DHT22;11266;51.522;6.302;2023-04-24T02:11:20;9.90;99.90
22202;DHT22;11266;51.522;6.302;2023-04-24T02:12:06;9.90;99.90
22202;DHT22;11266;51.522;6.302;2023-04-24T02:12:51;9.90;99.90
22202;DHT22;11266;51.522;6.302;2023-04-24T02:13:37;9.90;99.90
22202;DHT22;11266;51.522;6.302;2023-04-24T02:14:23;9.90;99.90
22202;DHT22;11266;51.522;6.302;2023-04-24T02:15:09;9.90;99.90
22202;DHT22;11266;51.522;6.302;2023-04-24T02:15:55;10.00;99.90
22202;DHT22;11266;51.522;6.302;2023-04-24T02:16:41;9.90;99.90
22202;DHT22;11266;51.522;6.302;2023-04-24T02:17:26;9.90;99.90
22202;DHT22;11266;51.522;6.302;2023-04-24T02:18:12;9.90;99.90
22202;DHT22;11266;51.522;6.302;2023-04-24T02:18:58;9.90;99.90
22202;DHT22;11266;51.522;6.302;2023-04-24T02:19:44;9.90;99.90
22202;DHT22;11266;51.522;6.302;2023-04-24T02:20:30;9.90;99.90
22202;DHT22;11266;51.522;6.302;2023-04-24T02:21:15;9.90;99.90
22202;DHT22;11266;51.522;6.302;2023-04-24T02:22:01;9.80;99.90
22202;DHT22;11266;51.522;6.302;2023-04-24T02:22:47;9.80;99.90
22202;DHT22;11266;51.522;6.302;2023-04-24T02:23:33;9.90;99.90
22202;DHT22;11266;51.522;6.302;2023-04-24T02:24:18;10.00;99.90
22202;DHT22;11266;51.522;6.302;2023-04-24T02:25:04;9.90;99.90
22202;DHT22;11266;51.522;6.302;2023-04-24T02:25:51;9.90;99.90
22202;DHT22;11266;51.522;6.302;2023-04-24T02:26:38;10.00;99.90
22202;DHT22;11266;51.522;6.302;2023-04-24T02:27:24;10.00;99.90
22202;DHT22;11266;51.522;6.302;2023-04-24T02:28:10;10.00;99.90
22202;DHT22;11266;51.522;6.302;2023-04-24T02:28:55;10.00;99.90
22202;DHT22;11266;51.522;6.302;2023-04-24T02:29:41;9.90;99.90
22202;DHT22;11266;51.522;6.302;2023-04-24T02:30:27;9.90;99.90
22202;DHT22;11266;51.522;6.302;2023-04-24T02:31:13;10.00;99.90
22202;DHT22;11266;51.522;6.302;2023-04-24T02:31:58;9.90;99.90
22202;DHT22;11266;51.522;6.302;2023-04-24T02:32:44;9.90;99.90
22202;DHT22;11266;51.522;6.302;2023-04-24T02:33:30;9.90;99.90
22202;DHT22;11266;51.522;6.302;2023-04-24T02:34:16;9.80;99.90
22202;DHT22;11266;51.522;6.302;2023-04-24T02:35:01;9.90;99.90
22202;DHT22;11266;51.522;6.302;2023-04-24T02:35:47;9.90;99.90
22202;DHT22;11266;51.522;6.302;2023-04-24T02:36:33;9.90;99.90
22202;DHT22;11266;51.522;6.302;2023-04-24T02:37:19;9.90;99.90
22202;DHT22;11266;51.522;6.302;2023-04-24T02:38:05;10.00;99.90
22202;DHT22;11266;51.522;6.302;2023-04-24T02:38:51;10.00;99.90
22202;DHT22;11266;51.522;6.302;2023-04-24T02:39:36;9.90;99.90
22202;DHT22;11266;51.522;6.302;2023-04-24T02:40:22;10.00;99.90
22202;DHT22;11266;51.522;6.302;2023-04-24T02:41:08;10.00;99.90
22202;DHT22;11266;51.522;6.302;2023-04-24T02:41:54;10.00;99.90
22202;DHT22;11266;51.522;6.302;2023-04-24T02:42:39;10.00;99.90
22202;DHT22;11266;51.522;6.302;2023-04-24T02:43:25;9.90;99.90
22202;DHT22;11266;51.522;6.302;2023-04-24T02:44:11;9.90;99.90
22202;DHT22;11266;51.522;6.302;2023-04-24T02:44:57;9.90;99.90
22202;DHT22;11266;51.522;6.302;2023-04-24T02:45:42;9.90;99.90
22202;DHT22;11266;51.522;6.302;2023-04-24T02:46:28;9.90;99.90
22202;DHT22;11266;51.522;6.302;2023-04-24T02:47:14;9.90;99.90
22202;DHT22;11266;51.522;6.302;2023-04-24T02:48:00;9.90;99.90
22202;DHT22;11266;51.522;6.302;2023-04-24T02:48:45;9.90;99.90
22202;DHT22;11266;51.522;6.302;2023-04-24T02:49:31;9.90;99.90
22202;DHT22;11266;51.522;6.302;2023-04-24T02:50:17;9.90;99.90
22202;DHT22;11266;51.522;6.302;2023-04-24T02:51:03;9.90;99.90
22202;DHT22;11266;51.522;6.302;2023-04-24T02:51:49;9.90;99.90
22202;DHT22;11266;51.522;6.302;2023-04-24T02:52:34;9.90;99.90
22202;DHT22;11266;51.522;6.302;2023-04-24T02:53:20;10.00;99.90
22202;DHT22;11266;51.522;6.302;2023-04-24T02:54:09;9.90;99.90
22202;DHT22;11266;51.522;6.302;2023-04-24T02:54:56;9.90;99.90
22202;DHT22;11266;51.522;6.302;2023-04-24T02:55:42;9.90;99.90
22202;DHT22;11266;51.522;6.302;2023-04-24T02:56:27;9.90;99.90
22202;DHT22;11266;51.522;6.302;2023-04-24T02:57:13;9.90;99.90
22202;DHT22;11266;51.522;6.302;2023-04-24T02:57:59;9.80;99.90
22202;DHT22;11266;51.522;6.302;2023-04-24T02:58:45;9.90;99.90
22202;DHT22;11266;51.522;6.302;2023-04-24T02:59:31;9.80;99.90
22202;DHT22;11266;51.522;6.302;2023-04-24T03:00:17;9.90;99.90
22202;DHT22;11266;51.522;6.302;2023-04-24T03:01:03;9.90;99.90
22202;DHT22;11266;51.522;6.302;2023-04-24T03:01:48;9.90;99.90
22202;DHT22;11266;51.522;6.302;2023-04-24T03:02:34;10.00;99.90
22202;DHT22;11266;51.522;6.302;2023-04-24T03:03:20;10.00;99.90
22202;DHT22;11266;51.522;6.302;2023-04-24T03:04:06;10.00;99.90
22202;DHT22;11266;51.522;6.302;2023-04-24T03:04:52;10.00;99.90
22202;DHT22;11266;51.522;6.302;2023-04-24T03:05:38;10.00;99.90
22202;DHT22;11266;51.522;6.302;2023-04-24T03:06:24;10.00;99.90
22202;DHT22;11266;51.522;6.302;2023-04-24T03:07:10;10.00;99.90
22202;DHT22;11266;51.522;6.302;2023-04-24T03:07:55;9.90;99.90
22202;DHT22;11266;51.522;6.302;2023-04-24T03:08:41;10.00;99.90
22202;DHT22;11266;51.522;6.302;2023-04-24T03:09:27;9.90;99.90
22202;DHT22;11266;51.522;6.302;2023-04-24T03:10:13;9.90;99.90
22202;DHT22;11266;51.522;6.302;2023-04-24T03:10:58;9.90;99.90
22202;DHT22;11266;51.522;6.302;2023-04-24T03:11:44;9.90;99.90
22202;DHT22;11266;51.522;6.302;2023-04-24T03:12:30;9.90;99.90
22202;DHT22;11266;51.522;6.302;2023-04-24T03:13:16;9.90;99.90
22202;DHT22;11266;51.522;6.302;2023-04-24T03:14:02;9.90;99.90
22202;DHT22;11266;51.522;6.302;2023-04-24T03:14:48;9.80;99.90
22202;DHT22;11266;51.522;6.302;2023-04-24T03:15:33;9.90;99.90
22202;DHT22;11266;51.522;6.302;2023-04-24T03:16:19;9.90;99.90
22202;DHT22;11266;51.522;6.302;2023-04-24T03:17:05;9.90;99.90
22202;DHT22;11266;51.522;6.302;2023-04-24T03:17:51;9.90;99.90
22202;DHT22;11266;51.522;6.302;2023-04-24T03:18:37;9.90;99.90
22202;DHT22;11266;51.522;6.302;2023-04-24T03:19:23;9.90;99.90
22202;DHT22;11266;51.522;6.302;2023-04-24T03:20:09;9.90;99.90
22202;DHT22;11266;51.522;6.302;2023-04-24T03:20:55;9.90;99.90
22202;DHT22;11266;51.522;6.302;2023-04-24T03:21:40;9.90;99.90
22202;DHT22;11266;51.522;6.302;2023-04-24T03:22:26;9.90;99.90
22202;DHT22;11266;51.522;6.302;2023-04-24T03:23:12;9.90;99.90
22202;DHT22;11266;51.522;6.302;2023-04-24T03:23:58;9.80;99.90
22202;DHT22;11266;51.522;6.302;2023-04-24T03:24:46;9.90;99.90
22202;DHT22;11266;51.522;6.302;2023-04-24T03:25:31;9.90;99.90
22202;DHT22;11266;51.522;6.302;2023-04-24T03:26:17;9.90;99.90
22202;DHT22;11266;51.522;6.302;2023-04-24T03:27:03;9.90;99.90
22202;DHT22;11266;51.522;6.302;2023-04-24T03:27:49;9.90;99.90
22202;DHT22;11266;51.522;6.302;2023-04-24T03:28:35;9.80;99.90
22202;DHT22;11266;51.522;6.302;2023-04-24T03:29:21;9.90;99.90
22202;DHT22;11266;51.522;6.302;2023-04-24T03:30:07;9.90;99.90
22202;DHT22;11266;51.522;6.302;2023-04-24T03:30:53;9.90;99.90
22202;DHT22;11266;51.522;6.302;2023-04-24T03:31:39;9.80;99.90
22202;DHT22;11266;51.522;6.302;2023-04-24T03:32:25;9.80;99.90
22202;DHT22;11266;51.522;6.302;2023-04-24T03:33:11;9.90;99.90
22202;DHT22;11266;51.522;6.302;2023-04-24T03:33:57;9.90;99.90
22202;DHT22;11266;51.522;6.302;2023-04-24T03:34:42;9.90;99.90
22202;DHT22;11266;51.522;6.302;2023-04-24T03:35:28;9.80;99.90
22202;DHT22;11266;51.522;6.302;2023-04-24T03:36:14;9.80;99.90
22202;DHT22;11266;51.522;6.302;2023-04-24T03:37:00;9.80;99.90
22202;DHT22;11266;51.522;6.302;2023-04-24T03:37:46;9.80;99.90
22202;DHT22;11266;51.522;6.302;2023-04-24T03:38:32;9.80;99.90
22202;DHT22;11266;51.522;6.302;2023-04-24T03:39:17;9.80;99.90
22202;DHT22;11266;51.522;6.302;2023-04-24T03:40:03;10.00;99.90
22202;DHT22;11266;51.522;6.302;2023-04-24T03:40:51;9.90;99.90
22202;DHT22;11266;51.522;6.302;2023-04-24T03:41:37;9.90;99.90
22202;DHT22;11266;51.522;6.302;2023-04-24T03:42:22;10.00;99.90
22202;DHT22;11266;51.522;6.302;2023-04-24T03:43:08;9.90;99.90
22202;DHT22;11266;51.522;6.302;2023-04-24T03:43:54;9.90;99.90
22202;DHT22;11266;51.522;6.302;2023-04-24T03:44:40;9.90;99.90
22202;DHT22;11266;51.522;6.302;2023-04-24T03:45:26;9.80;99.90
22202;DHT22;11266;51.522;6.302;2023-04-24T03:46:12;9.80;99.90
22202;DHT22;11266;51.522;6.302;2023-04-24T03:46:58;9.80;99.90
22202;DHT22;11266;51.522;6.302;2023-04-24T03:47:44;9.90;99.90
22202;DHT22;11266;51.522;6.302;2023-04-24T03:48:30;9.80;99.90
22202;DHT22;11266;51.522;6.302;2023-04-24T03:49:16;9.80;99.90
22202;DHT22;11266;51.522;6.302;2023-04-24T03:50:02;9.80;99.90
22202;DHT22;11266;51.522;6.302;2023-04-24T03:50:47;9.80;99.90
22202;DHT22;11266;51.522;6.302;2023-04-24T03:51:33;9.80;99.90
22202;DHT22;11266;51.522;6.302;2023-04-24T03:52:19;9.80;99.90
22202;DHT22;11266;51.522;6.302;2023-04-24T03:53:05;9.80;99.90
22202;DHT22;11266;51.522;6.302;2023-04-24T03:53:51;9.70;99.90
22202;DHT22;11266;51.522;6.302;2023-04-24T03:54:36;9.80;99.90
22202;DHT22;11266;51.522;6.302;2023-04-24T03:55:22;9.80;99.90
22202;DHT22;11266;51.522;6.302;2023-04-24T03:56:08;9.80;99.90
22202;DHT22;11266;51.522;6.302;2023-04-24T03:56:54;9.70;99.90
22202;DHT22;11266;51.522;6.302;2023-04-24T03:57:40;9.80;99.90
22202;DHT22;11266;51.522;6.302;2023-04-24T03:58:26;9.80;99.90
22202;DHT22;11266;51.522;6.302;2023-04-24T03:59:12;9.80;99.90
22202;DHT22;11266;51.522;6.302;2023-04-24T03:59:58;9.80;99.90
22202;DHT22;11266;51.522;6.302;2023-04-24T04:00:45;9.80;99.90
22202;DHT22;11266;51.522;6.302;2023-04-24T04:01:33;9.80;99.90
22202;DHT22;11266;51.522;6.302;2023-04-24T04:02:22;9.80;99.90
22202;DHT22;11266;51.522;6.302;2023-04-24T04:03:08;9.80;99.90
22202;DHT22;11266;51.522;6.302;2023-04-24T04:03:54;9.80;99.90
22202;DHT22;11266;51.522;6.302;2023-04-24T04:04:40;9.80;99.90
22202;DHT22;11266;51.522;6.302;2023-04-24T04:05:25;9.80;99.90
22202;DHT22;11266;51.522;6.302;2023-04-24T04:06:11;9.70;99.90
22202;DHT22;11266;51.522;6.302;2023-04-24T04:06:58;9.70;99.90
22202;DHT22;11266;51.522;6.302;2023-04-24T04:07:46;9.70;99.90
22202;DHT22;11266;51.522;6.302;2023-04-24T04:08:32;9.70;99.90
22202;DHT22;11266;51.522;6.302;2023-04-24T04:09:18;9.70;99.90
22202;DHT22;11266;51.522;6.302;2023-04-24T04:10:04;9.70;99.90
22202;DHT22;11266;51.522;6.302;2023-04-24T04:10:52;9.70;99.90
22202;DHT22;11266;51.522;6.302;2023-04-24T04:11:38;9.80;99.90
22202;DHT22;11266;51.522;6.302;2023-04-24T04:12:24;9.80;99.90
22202;DHT22;11266;51.522;6.302;2023-04-24T04:13:09;9.80;99.90
22202;DHT22;11266;51.522;6.302;2023-04-24T04:13:55;9.80;99.90
22202;DHT22;11266;51.522;6.302;2023-04-24T04:14:42;9.70;99.90
22202;DHT22;11266;51.522;6.302;2023-04-24T04:15:28;9.70;99.90
22202;DHT22;11266;51.522;6.302;2023-04-24T04:16:14;9.70;99.90
22202;DHT22;11266;51.522;6.302;2023-04-24T04:17:04;9.80;99.90
22202;DHT22;11266;51.522;6.302;2023-04-24T04:17:50;9.80;99.90
22202;DHT22;11266;51.522;6.302;2023-04-24T04:18:36;9.70;99.90
22202;DHT22;11266;51.522;6.302;2023-04-24T04:19:21;9.70;99.90
22202;DHT22;11266;51.522;6.302;2023-04-24T04:20:07;9.70;99.90
22202;DHT22;11266;51.522;6.302;2023-04-24T04:20:55;9.70;99.90
22202;DHT22;11266;51.522;6.302;2023-04-24T04:21:42;9.70;99.90
22202;DHT22;11266;51.522;6.302;2023-04-24T04:22:28;9.70;99.90
22202;DHT22;11266;51.522;6.302;2023-04-24T04:23:13;9.80;99.90
22202;DHT22;11266;51.522;6.302;2023-04-24T04:23:59;9.80;99.90
22202;DHT22;11266;51.522;6.302;2023-04-24T04:24:45;10.00;99.90
22202;DHT22;11266;51.522;6.302;2023-04-24T04:25:31;9.90;99.90
22202;DHT22;11266;51.522;6.302;2023-04-24T04:26:18;10.00;99.90
22202;DHT22;11266;51.522;6.302;2023-04-24T04:27:04;10.00;99.90
22202;DHT22;11266;51.522;6.302;2023-04-24T04:27:50;10.10;99.90
22202;DHT22;11266;51.522;6.302;2023-04-24T04:28:37;10.00;99.90
22202;DHT22;11266;51.522;6.302;2023-04-24T04:29:26;10.00;99.90
22202;DHT22;11266;51.522;6.302;2023-04-24T04:30:12;9.90;99.90
22202;DHT22;11266;51.522;6.302;2023-04-24T04:30:58;9.80;99.90
22202;DHT22;11266;51.522;6.302;2023-04-24T04:31:44;9.80;99.90
22202;DHT22;11266;51.522;6.302;2023-04-24T04:32:34;9.80;99.90
22202;DHT22;11266;51.522;6.302;2023-04-24T04:33:20;9.80;99.90
22202;DHT22;11266;51.522;6.302;2023-04-24T04:34:06;9.70;99.90
22202;DHT22;11266;51.522;6.302;2023-04-24T04:34:53;9.80;99.90
22202;DHT22;11266;51.522;6.302;2023-04-24T04:35:39;9.80;99.90
22202;DHT22;11266;51.522;6.302;2023-04-24T04:36:25;9.70;99.90
22202;DHT22;11266;51.522;6.302;2023-04-24T04:37:11;9.70;99.90
22202;DHT22;11266;51.522;6.302;2023-04-24T04:37:58;9.70;99.90
22202;DHT22;11266;51.522;6.302;2023-04-24T04:38:44;9.70;99.90
22202;DHT22;11266;51.522;6.302;2023-04-24T04:39:30;9.70;99.90
22202;DHT22;11266;51.522;6.302;2023-04-24T04:40:16;9.70;99.90
22202;DHT22;11266;51.522;6.302;2023-04-24T04:41:02;9.90;99.90
22202;DHT22;11266;51.522;6.302;2023-04-24T04:41:48;9.80;99.90
22202;DHT22;11266;51.522;6.302;2023-04-24T04:42:34;9.80;99.90
22202;DHT22;11266;51.522;6.302;2023-04-24T04:43:20;9.80;99.90
22202;DHT22;11266;51.522;6.302;2023-04-24T04:44:06;9.80;99.90
22202;DHT22;11266;51.522;6.302;2023-04-24T04:44:52;9.80;99.90
22202;DHT22;11266;51.522;6.302;2023-04-24T04:45:38;9.70;99.90
22202;DHT22;11266;51.522;6.302;2023-04-24T04:46:24;9.70;99.90
22202;DHT22;11266;51.522;6.302;2023-04-24T04:47:11;9.70;99.90
22202;DHT22;11266;51.522;6.302;2023-04-24T04:47:57;9.70;99.90
22202;DHT22;11266;51.522;6.302;2023-04-24T04:48:43;9.80;99.90
22202;DHT22;11266;51.522;6.302;2023-04-24T04:49:28;9.70;99.90
22202;DHT22;11266;51.522;6.302;2023-04-24T04:50:14;9.60;99.90
22202;DHT22;11266;51.522;6.302;2023-04-24T04:51:02;9.60;99.90
22202;DHT22;11266;51.522;6.302;2023-04-24T04:51:47;9.70;99.90
22202;DHT22;11266;51.522;6.302;2023-04-24T04:52:33;9.60;99.90
22202;DHT22;11266;51.522;6.302;2023-04-24T04:53:19;9.60;99.90